SAVT/REL METAR and TAF weather

Enter ICAO airport designator
Station Type Date Time Source
SAVT METAR 2020/04/05 16:12 UTC NOAA

SAVT 051612Z 25023G35KT 2500 DU FEW035 SCT200 17/M04 Q1004


Station Type Date Time Source
SAVT Decoded METAR 2020/04/05 16:12 UTC NOAA

Trelew Aerodrome, Argentina (SAVT) 43-12S 065-16W 43M
Apr 05, 2020 - 12:12 PM EDT / 2020.04.05 1612 UTC
Wind: from the WSW (250 degrees) at 26 MPH (23 KT) gusting to 40 MPH (35 KT):0
Visibility: 1 mile(s):0
Sky conditions: partly cloudy
Weather: widespread dust
Temperature: 62 F (17 C)
Dew Point: 24 F (-4 C)
Relative Humidity: 23%
Pressure (altimeter): 29.65 in. Hg (1004 hPa)
ob: SAVT 051612Z 25023G35KT 2500 DU FEW035 SCT200 17/M04 Q1004
cycle: 16

Station Type Date Time Source
SAVT TAF 2019/04/29 08:53 UTC NOAA

TAF
AMD SAVT 290800Z 2908/3006 27025G40KT 9999 SCT020 BKN035 TX16/2919Z TN07/3006Z
TEMPO 2911/2914 7000 -SHRA OVC020 SCT030
BECMG 3002/3004 25015KT

Example: see airport list